sensor_id;sensor_type;location;lat;lon;timestamp;temperature;humidity
21637;DHT22;10980;49.596;6.142;2023-02-23T00:00:01;10.40;99.90
21637;DHT22;10980;49.596;6.142;2023-02-23T00:03:35;10.50;99.90
21637;DHT22;10980;49.596;6.142;2023-02-23T00:06:58;10.40;99.90
21637;DHT22;10980;49.596;6.142;2023-02-23T00:10:21;10.40;99.90
21637;DHT22;10980;49.596;6.142;2023-02-23T00:13:50;10.40;99.90
21637;DHT22;10980;49.596;6.142;2023-02-23T00:17:14;10.40;99.90
21637;DHT22;10980;49.596;6.142;2023-02-23T00:20:38;10.40;99.90
21637;DHT22;10980;49.596;6.142;2023-02-23T00:24:07;10.40;99.90
21637;DHT22;10980;49.596;6.142;2023-02-23T00:27:51;10.40;99.90
21637;DHT22;10980;49.596;6.142;2023-02-23T00:31:14;10.30;99.90
21637;DHT22;10980;49.596;6.142;2023-02-23T00:34:36;10.20;99.90
21637;DHT22;10980;49.596;6.142;2023-02-23T00:37:57;10.30;99.90
21637;DHT22;10980;49.596;6.142;2023-02-23T00:41:20;10.40;99.90
21637;DHT22;10980;49.596;6.142;2023-02-23T00:44:51;10.30;99.90
21637;DHT22;10980;49.596;6.142;2023-02-23T00:48:13;10.20;99.90
21637;DHT22;10980;49.596;6.142;2023-02-23T00:51:35;10.30;99.90
21637;DHT22;10980;49.596;6.142;2023-02-23T00:55:02;10.20;99.90
21637;DHT22;10980;49.596;6.142;2023-02-23T00:58:26;10.20;99.90
21637;DHT22;10980;49.596;6.142;2023-02-23T01:01:48;10.20;99.90
21637;DHT22;10980;49.596;6.142;2023-02-23T01:05:15;10.30;99.90
21637;DHT22;10980;49.596;6.142;2023-02-23T01:08:41;10.30;99.90
21637;DHT22;10980;49.596;6.142;2023-02-23T01:12:16;10.30;99.90
21637;DHT22;10980;49.596;6.142;2023-02-23T01:15:42;10.30;99.90
21637;DHT22;10980;49.596;6.142;2023-02-23T01:19:05;10.20;99.90
21637;DHT22;10980;49.596;6.142;2023-02-23T01:22:30;10.20;99.90
21637;DHT22;10980;49.596;6.142;2023-02-23T01:25:52;10.20;99.90
21637;DHT22;10980;49.596;6.142;2023-02-23T01:29:16;10.20;99.90
21637;DHT22;10980;49.596;6.142;2023-02-23T01:32:45;10.20;99.90
21637;DHT22;10980;49.596;6.142;2023-02-23T01:36:08;10.30;99.90
21637;DHT22;10980;49.596;6.142;2023-02-23T01:39:42;10.30;99.90
21637;DHT22;10980;49.596;6.142;2023-02-23T01:43:20;10.20;99.90
21637;DHT22;10980;49.596;6.142;2023-02-23T01:46:46;10.20;99.90
21637;DHT22;10980;49.596;6.142;2023-02-23T01:50:25;10.10;99.90
21637;DHT22;10980;49.596;6.142;2023-02-23T01:53:59;10.10;99.90
21637;DHT22;10980;49.596;6.142;2023-02-23T01:57:28;10.00;99.90
21637;DHT22;10980;49.596;6.142;2023-02-23T02:00:57;10.00;99.90
21637;DHT22;10980;49.596;6.142;2023-02-23T02:04:23;10.00;99.90
21637;DHT22;10980;49.596;6.142;2023-02-23T02:07:48;10.00;99.90
21637;DHT22;10980;49.596;6.142;2023-02-23T02:11:22;10.10;99.90
21637;DHT22;10980;49.596;6.142;2023-02-23T02:14:51;10.10;99.90
21637;DHT22;10980;49.596;6.142;2023-02-23T02:18:57;10.10;99.90
21637;DHT22;10980;49.596;6.142;2023-02-23T02:26:53;10.00;99.90
21637;DHT22;10980;49.596;6.142;2023-02-23T02:38:31;9.60;99.90
21637;DHT22;10980;49.596;6.142;2023-02-23T02:42:34;9.60;99.90
21637;DHT22;10980;49.596;6.142;2023-02-23T02:46:22;9.60;99.90
21637;DHT22;10980;49.596;6.142;2023-02-23T02:53:38;9.70;99.90
21637;DHT22;10980;49.596;6.142;2023-02-23T02:57:06;9.70;99.90
21637;DHT22;10980;49.596;6.142;2023-02-23T03:00:43;9.70;99.90
21637;DHT22;10980;49.596;6.142;2023-02-23T03:04:28;9.80;99.90
21637;DHT22;10980;49.596;6.142;2023-02-23T03:08:20;9.80;99.90
21637;DHT22;10980;49.596;6.142;2023-02-23T03:12:38;9.80;99.90
21637;DHT22;10980;49.596;6.142;2023-02-23T03:20:41;9.90;99.90
21637;DHT22;10980;49.596;6.142;2023-02-23T03:24:40;9.90;99.90
21637;DHT22;10980;49.596;6.142;2023-02-23T03:28:37;9.80;99.90
21637;DHT22;10980;49.596;6.142;2023-02-23T03:32:35;9.90;99.90
21637;DHT22;10980;49.596;6.142;2023-02-23T03:36:25;9.90;99.90
21637;DHT22;10980;49.596;6.142;2023-02-23T03:40:18;9.80;99.90
21637;DHT22;10980;49.596;6.142;2023-02-23T03:44:09;9.80;99.90
21637;DHT22;10980;49.596;6.142;2023-02-23T03:47:55;9.70;99.90
21637;DHT22;10980;49.596;6.142;2023-02-23T03:51:41;9.70;99.90
21637;DHT22;10980;49.596;6.142;2023-02-23T03:55:36;9.60;99.90
21637;DHT22;10980;49.596;6.142;2023-02-23T03:59:27;9.60;99.90
21637;DHT22;10980;49.596;6.142;2023-02-23T04:03:14;9.60;99.90
21637;DHT22;10980;49.596;6.142;2023-02-23T04:06:59;9.70;99.90
21637;DHT22;10980;49.596;6.142;2023-02-23T04:10:49;9.70;99.90
21637;DHT22;10980;49.596;6.142;2023-02-23T04:15:28;9.60;99.90
21637;DHT22;10980;49.596;6.142;2023-02-23T04:18:35;9.60;99.90
21637;DHT22;10980;49.596;6.142;2023-02-23T04:21:58;9.60;99.90
21637;DHT22;10980;49.596;6.142;2023-02-23T04:25:20;9.60;99.90
21637;DHT22;10980;49.596;6.142;2023-02-23T04:28:46;9.50;99.90
21637;DHT22;10980;49.596;6.142;2023-02-23T04:32:17;9.50;99.90
21637;DHT22;10980;49.596;6.142;2023-02-23T04:35:41;9.50;99.90
21637;DHT22;10980;49.596;6.142;2023-02-23T04:39:03;9.50;99.90
21637;DHT22;10980;49.596;6.142;2023-02-23T04:42:25;9.50;99.90
21637;DHT22;10980;49.596;6.142;2023-02-23T04:45:48;9.60;99.90
21637;DHT22;10980;49.596;6.142;2023-02-23T04:49:10;9.60;99.90
21637;DHT22;10980;49.596;6.142;2023-02-23T04:52:32;9.60;99.90
21637;DHT22;10980;49.596;6.142;2023-02-23T04:55:55;9.60;99.90
21637;DHT22;10980;49.596;6.142;2023-02-23T04:59:17;9.60;99.90
21637;DHT22;10980;49.596;6.142;2023-02-23T05:02:39;9.50;99.90
21637;DHT22;10980;49.596;6.142;2023-02-23T05:06:01;9.60;99.90
21637;DHT22;10980;49.596;6.142;2023-02-23T05:09:24;9.60;99.90
21637;DHT22;10980;49.596;6.142;2023-02-23T05:12:46;9.60;99.90
21637;DHT22;10980;49.596;6.142;2023-02-23T05:16:07;9.60;99.90
21637;DHT22;10980;49.596;6.142;2023-02-23T05:19:29;9.60;99.90
21637;DHT22;10980;49.596;6.142;2023-02-23T05:22:51;9.70;99.90
21637;DHT22;10980;49.596;6.142;2023-02-23T05:26:13;9.60;99.90
21637;DHT22;10980;49.596;6.142;2023-02-23T05:29:36;9.60;99.90
21637;DHT22;10980;49.596;6.142;2023-02-23T05:33:00;9.70;99.90
21637;DHT22;10980;49.596;6.142;2023-02-23T05:36:22;9.70;99.90
21637;DHT22;10980;49.596;6.142;2023-02-23T05:39:45;9.70;99.90
21637;DHT22;10980;49.596;6.142;2023-02-23T05:43:10;9.70;99.90
21637;DHT22;10980;49.596;6.142;2023-02-23T05:46:32;9.60;99.90
21637;DHT22;10980;49.596;6.142;2023-02-23T05:49:55;9.60;99.90
21637;DHT22;10980;49.596;6.142;2023-02-23T05:53:16;9.50;99.90
21637;DHT22;10980;49.596;6.142;2023-02-23T05:56:39;9.50;99.90
21637;DHT22;10980;49.596;6.142;2023-02-23T06:00:04;9.60;99.90
21637;DHT22;10980;49.596;6.142;2023-02-23T06:03:27;9.60;99.90
21637;DHT22;10980;49.596;6.142;2023-02-23T06:06:49;9.60;99.90
21637;DHT22;10980;49.596;6.142;2023-02-23T06:10:11;9.60;99.90
21637;DHT22;10980;49.596;6.142;2023-02-23T06:13:34;9.60;99.90
21637;DHT22;10980;49.596;6.142;2023-02-23T06:16:57;9.60;99.90
21637;DHT22;10980;49.596;6.142;2023-02-23T06:20:19;9.60;99.90
21637;DHT22;10980;49.596;6.142;2023-02-23T06:23:42;9.60;99.90
21637;DHT22;10980;49.596;6.142;2023-02-23T06:27:06;9.60;99.90
21637;DHT22;10980;49.596;6.142;2023-02-23T06:30:28;9.60;99.90
21637;DHT22;10980;49.596;6.142;2023-02-23T06:33:50;9.70;99.90
21637;DHT22;10980;49.596;6.142;2023-02-23T06:37:12;9.70;99.90
21637;DHT22;10980;49.596;6.142;2023-02-23T06:40:37;9.70;99.90
21637;DHT22;10980;49.596;6.142;2023-02-23T06:44:00;9.70;99.90
21637;DHT22;10980;49.596;6.142;2023-02-23T06:47:28;9.80;99.90
21637;DHT22;10980;49.596;6.142;2023-02-23T06:50:50;9.80;99.90
21637;DHT22;10980;49.596;6.142;2023-02-23T06:54:12;9.80;99.90
21637;DHT22;10980;49.596;6.142;2023-02-23T06:57:34;9.80;99.90
21637;DHT22;10980;49.596;6.142;2023-02-23T07:01:02;9.80;99.90
21637;DHT22;10980;49.596;6.142;2023-02-23T07:04:24;9.80;99.90
21637;DHT22;10980;49.596;6.142;2023-02-23T07:07:47;9.80;99.90
21637;DHT22;10980;49.596;6.142;2023-02-23T07:11:11;9.80;99.90
21637;DHT22;10980;49.596;6.142;2023-02-23T07:14:41;9.80;99.90
21637;DHT22;10980;49.596;6.142;2023-02-23T07:18:09;9.90;99.90
21637;DHT22;10980;49.596;6.142;2023-02-23T07:21:34;10.00;99.90
21637;DHT22;10980;49.596;6.142;2023-02-23T07:24:56;10.00;99.90
21637;DHT22;10980;49.596;6.142;2023-02-23T07:28:18;10.10;99.90
21637;DHT22;10980;49.596;6.142;2023-02-23T07:31:41;10.10;99.90
21637;DHT22;10980;49.596;6.142;2023-02-23T07:35:04;10.20;99.90
21637;DHT22;10980;49.596;6.142;2023-02-23T07:38:27;10.10;99.90
21637;DHT22;10980;49.596;6.142;2023-02-23T07:41:49;10.10;99.90
21637;DHT22;10980;49.596;6.142;2023-02-23T07:45:12;10.20;99.90
21637;DHT22;10980;49.596;6.142;2023-02-23T07:48:34;10.20;99.90
21637;DHT22;10980;49.596;6.142;2023-02-23T07:52:02;10.30;99.90
21637;DHT22;10980;49.596;6.142;2023-02-23T07:55:26;10.30;99.90
21637;DHT22;10980;49.596;6.142;2023-02-23T07:58:48;10.40;99.90
21637;DHT22;10980;49.596;6.142;2023-02-23T08:02:13;10.40;99.90
21637;DHT22;10980;49.596;6.142;2023-02-23T08:05:43;10.50;99.90
21637;DHT22;10980;49.596;6.142;2023-02-23T08:09:16;10.60;99.90
21637;DHT22;10980;49.596;6.142;2023-02-23T08:12:39;10.60;99.90
21637;DHT22;10980;49.596;6.142;2023-02-23T08:16:02;10.80;99.90
21637;DHT22;10980;49.596;6.142;2023-02-23T08:19:26;10.80;99.90
21637;DHT22;10980;49.596;6.142;2023-02-23T08:22:54;11.00;99.90
21637;DHT22;10980;49.596;6.142;2023-02-23T08:26:21;11.20;99.90
21637;DHT22;10980;49.596;6.142;2023-02-23T08:29:45;11.40;99.90
21637;DHT22;10980;49.596;6.142;2023-02-23T08:33:14;11.70;99.90
21637;DHT22;10980;49.596;6.142;2023-02-23T08:36:37;11.90;99.90
21637;DHT22;10980;49.596;6.142;2023-02-23T08:40:05;11.90;99.90
21637;DHT22;10980;49.596;6.142;2023-02-23T08:43:32;11.90;99.90
21637;DHT22;10980;49.596;6.142;2023-02-23T08:47:02;12.10;99.90
21637;DHT22;10980;49.596;6.142;2023-02-23T08:50:26;12.10;99.90
21637;DHT22;10980;49.596;6.142;2023-02-23T08:53:50;12.00;99.90
21637;DHT22;10980;49.596;6.142;2023-02-23T08:57:14;12.10;99.90
21637;DHT22;10980;49.596;6.142;2023-02-23T09:00:39;12.10;99.90
21637;DHT22;10980;49.596;6.142;2023-02-23T09:04:04;11.90;99.90
21637;DHT22;10980;49.596;6.142;2023-02-23T09:07:29;11.70;99.90
21637;DHT22;10980;49.596;6.142;2023-02-23T09:10:54;11.60;99.90
21637;DHT22;10980;49.596;6.142;2023-02-23T09:14:16;11.30;99.90
21637;DHT22;10980;49.596;6.142;2023-02-23T09:17:38;11.20;99.90
21637;DHT22;10980;49.596;6.142;2023-02-23T09:21:05;11.10;99.90
21637;DHT22;10980;49.596;6.142;2023-02-23T09:24:29;11.00;99.90
21637;DHT22;10980;49.596;6.142;2023-02-23T09:27:53;11.00;99.90
21637;DHT22;10980;49.596;6.142;2023-02-23T09:31:22;11.30;99.90
21637;DHT22;10980;49.596;6.142;2023-02-23T09:34:46;11.70;99.90
21637;DHT22;10980;49.596;6.142;2023-02-23T09:38:09;12.00;99.90
21637;DHT22;10980;49.596;6.142;2023-02-23T09:45:31;11.90;99.90
21637;DHT22;10980;49.596;6.142;2023-02-23T09:49:01;11.60;99.90
21637;DHT22;10980;49.596;6.142;2023-02-23T09:52:27;11.70;99.90
21637;DHT22;10980;49.596;6.142;2023-02-23T09:56:12;11.90;99.90
21637;DHT22;10980;49.596;6.142;2023-02-23T09:59:39;12.00;99.90
21637;DHT22;10980;49.596;6.142;2023-02-23T10:07:12;12.20;99.90
21637;DHT22;10980;49.596;6.142;2023-02-23T10:14:55;12.00;99.90
21637;DHT22;10980;49.596;6.142;2023-02-23T10:22:11;12.00;99.90
21637;DHT22;10980;49.596;6.142;2023-02-23T10:25:49;12.00;99.90
21637;DHT22;10980;49.596;6.142;2023-02-23T10:29:41;11.90;99.90
21637;DHT22;10980;49.596;6.142;2023-02-23T10:33:30;11.80;99.90
21637;DHT22;10980;49.596;6.142;2023-02-23T10:37:01;12.00;99.90
21637;DHT22;10980;49.596;6.142;2023-02-23T10:40:29;11.90;99.90
21637;DHT22;10980;49.596;6.142;2023-02-23T10:43:55;11.60;99.90
21637;DHT22;10980;49.596;6.142;2023-02-23T10:47:35;11.90;99.90
21637;DHT22;10980;49.596;6.142;2023-02-23T10:50:58;12.00;99.90
21637;DHT22;10980;49.596;6.142;2023-02-23T10:54:40;12.10;99.90
21637;DHT22;10980;49.596;6.142;2023-02-23T10:58:14;12.10;99.90
21637;DHT22;10980;49.596;6.142;2023-02-23T11:01:49;12.30;99.90
21637;DHT22;10980;49.596;6.142;2023-02-23T11:05:42;12.40;99.90
21637;DHT22;10980;49.596;6.142;2023-02-23T11:09:29;12.70;99.90
21637;DHT22;10980;49.596;6.142;2023-02-23T11:13:33;12.70;99.90
21637;DHT22;10980;49.596;6.142;2023-02-23T11:17:01;12.80;99.90
21637;DHT22;10980;49.596;6.142;2023-02-23T11:20:44;12.70;99.70
21637;DHT22;10980;49.596;6.142;2023-02-23T11:24:24;12.40;99.90
21637;DHT22;10980;49.596;6.142;2023-02-23T11:27:48;12.60;99.90
21637;DHT22;10980;49.596;6.142;2023-02-23T11:31:31;12.60;99.90
21637;DHT22;10980;49.596;6.142;2023-02-23T11:38:44;12.40;99.90
21637;DHT22;10980;49.596;6.142;2023-02-23T11:42:17;12.40;99.90
21637;DHT22;10980;49.596;6.142;2023-02-23T11:45:49;12.30;99.90
21637;DHT22;10980;49.596;6.142;2023-02-23T11:49:28;12.80;99.40
21637;DHT22;10980;49.596;6.142;2023-02-23T11:56:47;13.80;95.90
21637;DHT22;10980;49.596;6.142;2023-02-23T12:00:22;14.10;94.20
21637;DHT22;10980;49.596;6.142;2023-02-23T12:03:58;14.20;94.60
21637;DHT22;10980;49.596;6.142;2023-02-23T12:11:26;14.50;94.10
21637;DHT22;10980;49.596;6.142;2023-02-23T12:15:03;14.40;94.00
21637;DHT22;10980;49.596;6.142;2023-02-23T12:22:23;14.60;93.60
21637;DHT22;10980;49.596;6.142;2023-02-23T12:25:57;14.80;92.50
21637;DHT22;10980;49.596;6.142;2023-02-23T12:33:18;14.90;92.40
21637;DHT22;10980;49.596;6.142;2023-02-23T12:37:00;14.90;92.20
21637;DHT22;10980;49.596;6.142;2023-02-23T12:40:34;15.00;92.20
21637;DHT22;10980;49.596;6.142;2023-02-23T12:44:04;15.30;91.70
21637;DHT22;10980;49.596;6.142;2023-02-23T12:51:48;14.50;92.20
21637;DHT22;10980;49.596;6.142;2023-02-23T12:55:15;14.70;91.70
21637;DHT22;10980;49.596;6.142;2023-02-23T13:03:15;15.70;89.10
21637;DHT22;10980;49.596;6.142;2023-02-23T13:14:10;15.10;89.90
21637;DHT22;10980;49.596;6.142;2023-02-23T13:21:36;15.00;90.50
21637;DHT22;10980;49.596;6.142;2023-02-23T13:33:05;14.40;91.60
21637;DHT22;10980;49.596;6.142;2023-02-23T13:36:38;14.10;92.10
21637;DHT22;10980;49.596;6.142;2023-02-23T13:40:20;13.60;93.20
21637;DHT22;10980;49.596;6.142;2023-02-23T13:44:20;13.40;93.60
21637;DHT22;10980;49.596;6.142;2023-02-23T13:51:56;12.80;94.50
21637;DHT22;10980;49.596;6.142;2023-02-23T13:58:59;12.40;95.00
21637;DHT22;10980;49.596;6.142;2023-02-23T14:02:38;12.30;95.40
21637;DHT22;10980;49.596;6.142;2023-02-23T14:06:06;12.10;94.90
21637;DHT22;10980;49.596;6.142;2023-02-23T14:20:41;11.90;95.80
21637;DHT22;10980;49.596;6.142;2023-02-23T14:24:21;12.10;95.50
21637;DHT22;10980;49.596;6.142;2023-02-23T14:28:33;12.10;95.20
21637;DHT22;10980;49.596;6.142;2023-02-23T14:35:42;12.40;94.60
21637;DHT22;10980;49.596;6.142;2023-02-23T14:42:55;12.70;93.80
21637;DHT22;10980;49.596;6.142;2023-02-23T14:46:20;12.70;93.50
21637;DHT22;10980;49.596;6.142;2023-02-23T14:49:52;12.90;94.20
21637;DHT22;10980;49.596;6.142;2023-02-23T14:53:26;12.70;95.30
21637;DHT22;10980;49.596;6.142;2023-02-23T14:56:55;12.60;95.60
21637;DHT22;10980;49.596;6.142;2023-02-23T15:00:30;12.50;96.40
21637;DHT22;10980;49.596;6.142;2023-02-23T15:04:09;12.40;96.60
21637;DHT22;10980;49.596;6.142;2023-02-23T15:07:38;12.30;97.10
21637;DHT22;10980;49.596;6.142;2023-02-23T15:11:13;12.50;97.00
21637;DHT22;10980;49.596;6.142;2023-02-23T15:14:41;12.50;96.60
21637;DHT22;10980;49.596;6.142;2023-02-23T15:18:05;12.70;96.60
21637;DHT22;10980;49.596;6.142;2023-02-23T15:21:27;12.70;96.40
21637;DHT22;10980;49.596;6.142;2023-02-23T15:24:49;12.40;96.90
21637;DHT22;10980;49.596;6.142;2023-02-23T15:28:21;12.30;97.30
21637;DHT22;10980;49.596;6.142;2023-02-23T15:31:52;12.40;97.00
21637;DHT22;10980;49.596;6.142;2023-02-23T15:35:16;12.40;96.80
21637;DHT22;10980;49.596;6.142;2023-02-23T15:38:46;12.30;96.40
21637;DHT22;10980;49.596;6.142;2023-02-23T15:42:27;12.30;96.70
21637;DHT22;10980;49.596;6.142;2023-02-23T15:46:02;12.30;96.90
21637;DHT22;10980;49.596;6.142;2023-02-23T15:49:33;12.30;96.60
21637;DHT22;10980;49.596;6.142;2023-02-23T15:53:17;12.20;97.00
21637;DHT22;10980;49.596;6.142;2023-02-23T15:56:54;12.10;97.30
21637;DHT22;10980;49.596;6.142;2023-02-23T16:00:31;12.10;97.40
21637;DHT22;10980;49.596;6.142;2023-02-23T16:04:06;12.10;96.40
21637;DHT22;10980;49.596;6.142;2023-02-23T16:07:35;11.90;96.10
21637;DHT22;10980;49.596;6.142;2023-02-23T16:11:12;11.80;95.70
21637;DHT22;10980;49.596;6.142;2023-02-23T16:14:49;11.70;96.20
21637;DHT22;10980;49.596;6.142;2023-02-23T16:18:18;11.50;96.70
21637;DHT22;10980;49.596;6.142;2023-02-23T16:21:50;11.50;97.10
21637;DHT22;10980;49.596;6.142;2023-02-23T16:25:20;11.50;97.30
21637;DHT22;10980;49.596;6.142;2023-02-23T16:29:03;11.40;97.40
21637;DHT22;10980;49.596;6.142;2023-02-23T16:32:37;11.30;97.60
21637;DHT22;10980;49.596;6.142;2023-02-23T16:36:16;11.30;97.60
21637;DHT22;10980;49.596;6.142;2023-02-23T16:39:41;11.20;97.70
21637;DHT22;10980;49.596;6.142;2023-02-23T16:43:07;11.00;98.00
21637;DHT22;10980;49.596;6.142;2023-02-23T16:46:56;10.80;98.50
21637;DHT22;10980;49.596;6.142;2023-02-23T16:50:22;10.70;98.50
21637;DHT22;10980;49.596;6.142;2023-02-23T16:53:45;10.70;99.10
21637;DHT22;10980;49.596;6.142;2023-02-23T16:57:18;10.70;99.10
21637;DHT22;10980;49.596;6.142;2023-02-23T17:00:44;10.60;99.20
21637;DHT22;10980;49.596;6.142;2023-02-23T17:04:13;10.60;99.20
21637;DHT22;10980;49.596;6.142;2023-02-23T17:07:38;10.60;99.10
21637;DHT22;10980;49.596;6.142;2023-02-23T17:11:01;10.60;98.80
21637;DHT22;10980;49.596;6.142;2023-02-23T17:14:26;10.60;99.30
21637;DHT22;10980;49.596;6.142;2023-02-23T17:17:53;10.50;99.40
21637;DHT22;10980;49.596;6.142;2023-02-23T17:21:18;10.30;99.30
21637;DHT22;10980;49.596;6.142;2023-02-23T17:24:44;10.30;99.70
21637;DHT22;10980;49.596;6.142;2023-02-23T17:28:06;10.20;99.60
21637;DHT22;10980;49.596;6.142;2023-02-23T17:31:29;10.30;99.40
21637;DHT22;10980;49.596;6.142;2023-02-23T17:34:55;10.20;99.70
21637;DHT22;10980;49.596;6.142;2023-02-23T17:38:24;10.20;99.90
21637;DHT22;10980;49.596;6.142;2023-02-23T17:41:54;10.20;99.90
21637;DHT22;10980;49.596;6.142;2023-02-23T17:45:16;10.30;99.90
21637;DHT22;10980;49.596;6.142;2023-02-23T17:48:45;10.30;99.90
21637;DHT22;10980;49.596;6.142;2023-02-23T17:52:07;10.30;99.90
21637;DHT22;10980;49.596;6.142;2023-02-23T17:55:29;10.20;99.90
21637;DHT22;10980;49.596;6.142;2023-02-23T17:58:52;10.30;99.90
21637;DHT22;10980;49.596;6.142;2023-02-23T18:02:16;10.30;99.90
21637;DHT22;10980;49.596;6.142;2023-02-23T18:05:46;10.30;99.60
21637;DHT22;10980;49.596;6.142;2023-02-23T18:09:14;10.20;99.90
21637;DHT22;10980;49.596;6.142;2023-02-23T18:12:37;10.10;99.90
21637;DHT22;10980;49.596;6.142;2023-02-23T18:16:08;10.10;99.90
21637;DHT22;10980;49.596;6.142;2023-02-23T18:19:32;10.10;99.90
21637;DHT22;10980;49.596;6.142;2023-02-23T18:22:54;9.90;99.90
21637;DHT22;10980;49.596;6.142;2023-02-23T18:26:20;9.90;99.90
21637;DHT22;10980;49.596;6.142;2023-02-23T18:29:44;9.90;99.90
21637;DHT22;10980;49.596;6.142;2023-02-23T18:33:12;9.90;99.90
21637;DHT22;10980;49.596;6.142;2023-02-23T18:36:36;9.90;99.90
21637;DHT22;10980;49.596;6.142;2023-02-23T18:40:02;9.80;99.90
21637;DHT22;10980;49.596;6.142;2023-02-23T18:43:26;10.00;99.90
21637;DHT22;10980;49.596;6.142;2023-02-23T18:46:48;9.90;99.90
21637;DHT22;10980;49.596;6.142;2023-02-23T18:50:18;10.00;99.90
21637;DHT22;10980;49.596;6.142;2023-02-23T18:53:42;9.70;99.90
21637;DHT22;10980;49.596;6.142;2023-02-23T18:57:06;9.60;99.90
21637;DHT22;10980;49.596;6.142;2023-02-23T19:00:28;9.50;99.90
21637;DHT22;10980;49.596;6.142;2023-02-23T19:03:57;9.40;99.90
21637;DHT22;10980;49.596;6.142;2023-02-23T19:07:22;9.40;99.90
21637;DHT22;10980;49.596;6.142;2023-02-23T19:10:44;9.30;99.90
21637;DHT22;10980;49.596;6.142;2023-02-23T19:14:14;9.30;99.90
21637;DHT22;10980;49.596;6.142;2023-02-23T19:17:38;9.30;99.90
21637;DHT22;10980;49.596;6.142;2023-02-23T19:21:01;9.30;99.90
21637;DHT22;10980;49.596;6.142;2023-02-23T19:24:24;9.30;99.90
21637;DHT22;10980;49.596;6.142;2023-02-23T19:27:46;9.20;99.90
21637;DHT22;10980;49.596;6.142;2023-02-23T19:31:10;9.20;99.90
21637;DHT22;10980;49.596;6.142;2023-02-23T19:34:36;9.20;99.90
21637;DHT22;10980;49.596;6.142;2023-02-23T19:38:01;9.30;99.90
21637;DHT22;10980;49.596;6.142;2023-02-23T19:41:25;9.20;99.90
21637;DHT22;10980;49.596;6.142;2023-02-23T19:44:48;9.40;99.90
21637;DHT22;10980;49.596;6.142;2023-02-23T19:48:16;9.30;99.90
21637;DHT22;10980;49.596;6.142;2023-02-23T19:51:40;9.30;99.90
21637;DHT22;10980;49.596;6.142;2023-02-23T19:55:06;9.20;99.90
21637;DHT22;10980;49.596;6.142;2023-02-23T19:58:30;9.10;99.90
21637;DHT22;10980;49.596;6.142;2023-02-23T20:01:56;8.90;99.90
21637;DHT22;10980;49.596;6.142;2023-02-23T20:05:21;8.80;99.90
21637;DHT22;10980;49.596;6.142;2023-02-23T20:08:46;8.70;99.90
21637;DHT22;10980;49.596;6.142;2023-02-23T20:12:16;8.60;99.90
21637;DHT22;10980;49.596;6.142;2023-02-23T20:15:38;8.60;99.90
21637;DHT22;10980;49.596;6.142;2023-02-23T20:19:00;8.60;99.90
21637;DHT22;10980;49.596;6.142;2023-02-23T20:22:25;8.50;99.90
21637;DHT22;10980;49.596;6.142;2023-02-23T20:25:48;8.50;99.90
21637;DHT22;10980;49.596;6.142;2023-02-23T20:29:18;8.50;99.90
21637;DHT22;10980;49.596;6.142;2023-02-23T20:32:42;8.40;99.90
21637;DHT22;10980;49.596;6.142;2023-02-23T20:36:05;8.30;99.90
21637;DHT22;10980;49.596;6.142;2023-02-23T20:39:30;8.30;99.90
21637;DHT22;10980;49.596;6.142;2023-02-23T20:42:53;8.30;99.90
21637;DHT22;10980;49.596;6.142;2023-02-23T20:46:16;8.20;99.90
21637;DHT22;10980;49.596;6.142;2023-02-23T20:49:38;8.30;99.90
21637;DHT22;10980;49.596;6.142;2023-02-23T20:53:04;8.30;99.90
21637;DHT22;10980;49.596;6.142;2023-02-23T20:56:25;8.30;99.90
21637;DHT22;10980;49.596;6.142;2023-02-23T20:59:54;8.30;99.90
21637;DHT22;10980;49.596;6.142;2023-02-23T21:03:18;8.30;99.90
21637;DHT22;10980;49.596;6.142;2023-02-23T21:06:42;8.40;99.90
21637;DHT22;10980;49.596;6.142;2023-02-23T21:10:05;8.50;99.90
21637;DHT22;10980;49.596;6.142;2023-02-23T21:13:30;8.40;99.90
21637;DHT22;10980;49.596;6.142;2023-02-23T21:16:53;8.40;99.90
21637;DHT22;10980;49.596;6.142;2023-02-23T21:20:15;8.30;99.90
21637;DHT22;10980;49.596;6.142;2023-02-23T21:23:40;8.20;99.90
21637;DHT22;10980;49.596;6.142;2023-02-23T21:27:03;8.20;99.90
21637;DHT22;10980;49.596;6.142;2023-02-23T21:30:30;8.20;99.90
21637;DHT22;10980;49.596;6.142;2023-02-23T21:33:53;8.20;99.90
21637;DHT22;10980;49.596;6.142;2023-02-23T21:37:17;8.20;99.90
21637;DHT22;10980;49.596;6.142;2023-02-23T21:40:40;8.20;99.90
21637;DHT22;10980;49.596;6.142;2023-02-23T21:44:06;8.10;99.90
21637;DHT22;10980;49.596;6.142;2023-02-23T21:47:29;8.10;99.90
21637;DHT22;10980;49.596;6.142;2023-02-23T21:51:00;8.20;99.90
21637;DHT22;10980;49.596;6.142;2023-02-23T21:54:26;8.20;99.90
21637;DHT22;10980;49.596;6.142;2023-02-23T21:57:50;8.10;99.90
21637;DHT22;10980;49.596;6.142;2023-02-23T22:01:15;8.10;99.90
21637;DHT22;10980;49.596;6.142;2023-02-23T22:04:40;8.20;99.90
21637;DHT22;10980;49.596;6.142;2023-02-23T22:08:05;8.20;99.90
21637;DHT22;10980;49.596;6.142;2023-02-23T22:11:27;8.20;99.90
21637;DHT22;10980;49.596;6.142;2023-02-23T22:14:49;8.20;99.90
21637;DHT22;10980;49.596;6.142;2023-02-23T22:18:11;8.10;99.90
21637;DHT22;10980;49.596;6.142;2023-02-23T22:21:41;8.10;99.90
21637;DHT22;10980;49.596;6.142;2023-02-23T22:25:06;8.20;99.90
21637;DHT22;10980;49.596;6.142;2023-02-23T22:28:29;8.10;99.90
21637;DHT22;10980;49.596;6.142;2023-02-23T22:31:51;8.10;99.90
21637;DHT22;10980;49.596;6.142;2023-02-23T22:35:14;8.00;99.90
21637;DHT22;10980;49.596;6.142;2023-02-23T22:38:36;7.90;99.90
21637;DHT22;10980;49.596;6.142;2023-02-23T22:42:00;7.90;99.90
21637;DHT22;10980;49.596;6.142;2023-02-23T22:45:29;7.90;99.90
21637;DHT22;10980;49.596;6.142;2023-02-23T22:48:52;7.90;99.90
21637;DHT22;10980;49.596;6.142;2023-02-23T22:52:23;8.00;99.90
21637;DHT22;10980;49.596;6.142;2023-02-23T22:55:49;8.00;99.90
21637;DHT22;10980;49.596;6.142;2023-02-23T22:59:15;8.20;99.90
21637;DHT22;10980;49.596;6.142;2023-02-23T23:02:40;8.20;99.90
21637;DHT22;10980;49.596;6.142;2023-02-23T23:06:15;8.20;99.90
21637;DHT22;10980;49.596;6.142;2023-02-23T23:09:42;8.10;99.90
21637;DHT22;10980;49.596;6.142;2023-02-23T23:13:11;8.00;99.90
21637;DHT22;10980;49.596;6.142;2023-02-23T23:16:35;8.00;99.90
21637;DHT22;10980;49.596;6.142;2023-02-23T23:20:10;8.00;99.90
21637;DHT22;10980;49.596;6.142;2023-02-23T23:23:55;8.00;99.90
21637;DHT22;10980;49.596;6.142;2023-02-23T23:27:19;8.20;99.90
21637;DHT22;10980;49.596;6.142;2023-02-23T23:30:42;8.20;99.90
21637;DHT22;10980;49.596;6.142;2023-02-23T23:34:10;8.20;99.90
21637;DHT22;10980;49.596;6.142;2023-02-23T23:37:33;8.00;99.90
21637;DHT22;10980;49.596;6.142;2023-02-23T23:40:55;8.10;99.90
21637;DHT22;10980;49.596;6.142;2023-02-23T23:44:23;8.10;99.90
21637;DHT22;10980;49.596;6.142;2023-02-23T23:47:49;8.00;99.90
21637;DHT22;10980;49.596;6.142;2023-02-23T23:51:11;7.90;99.90
21637;DHT22;10980;49.596;6.142;2023-02-23T23:54:36;8.00;99.90
21637;DHT22;10980;49.596;6.142;2023-02-23T23:57:59;8.00;99.90
